• Join FlightAware (Why Join?)
  • Login
  • US Flag 
05:56AM EDT


 

Airport Tracker/Info


-or-


 

Live Flight TrackerFlight Track Log ✈ SCX8701 ✈ 14-Feb-2014 ✈ MUHA / HAV - KMIA

Flight Track Log - Related Links

Times and Time Zones

All times are in EST time to prevent confusion due to time zone crossing. See the SCX8701 flight status page for this flight to view local times or setup timezone preferences in your user account.

Time Position Orientation Groundspeed Altitude Reporting Facility
EST Latitude Longitude Course Direction KTS MPH feet Rate Location/Type
12:15AM 23.2611 -82.0633 47° Northeast 401 461 17,100  Level Miami Center
12:16AM 23.3372 -81.9758 47° Northeast 400 460 20,600 3,300 Climbing Miami Center
12:17AM 23.4131 -81.8906 46° Northeast 394 453 23,800 1,680 Climbing Miami Center
12:18AM 23.4933 -81.7989 46° Northeast 392 451 24,000 60 Climbing Miami Center
12:19AM 23.5756 -81.7069 46° Northeast 410 472 24,000  Level Miami Center
12:20AM 23.6583 -81.6081 48° Northeast 421 484 24,000  Level Miami Center
12:21AM 23.7428 -81.5114 46° Northeast 431 496 24,000  Level Miami Center
12:22AM 23.8358 -81.4058 46° Northeast 439 505 24,000  Level Miami Center
12:23AM 23.9294 -81.3456 30° Northeast 434 499 24,000  Level Miami Center
12:24AM 24.0389 -81.3200 12° North 405 466 24,000  Level Miami Center
12:25AM 24.1483 -81.2872 15° North 400 460 24,000  Level Miami Center
12:26AM 24.2619 -81.2572 14° North 401 461 24,000  Level Miami Center
12:27AM 24.3736 -81.2292 13° North 401 461 24,000  Level Miami Center
12:28AM 24.4872 -81.1967 15° North 407 468 24,000  Level Miami Center
12:29AM 24.6008 -81.1708 12° North 413 475 24,000  Level Miami Center
12:30AM 24.7125 -81.1383 15° North 413 475 24,000  Level Miami Center
12:31AM 24.8261 -81.1078 14° North 413 475 24,000  Level Miami Center
12:32AM 24.9397 -81.0775 14° North 413 475 24,000  Level Miami Center
12:33AM 25.0533 -81.0447 15° North 413 475 24,000 -900 Level Miami Center
12:34AM 25.1672 -81.0142 14° North 413 475 22,200 -2,160 Descending Miami Center
12:35AM 25.2386 -80.9958 13° North 414 476 20,600 -2,340 Descending Miami Center
12:35AM 25.2786 -80.9836 15° North 413 475 19,900 -2,220 Descending Miami Center
12:36AM 25.3461 -80.9650 14° North 399 459 18,400 -2,100 Descending Miami Center
12:36AM 25.3819 -80.9547 15° North 401 461 17,800 -2,460 Descending Miami Center
12:37AM 25.4617 -80.9344 13° North 385 443 15,900 -2,520 Descending Miami Center
12:37AM 25.4869 -80.9261 17° North 388 447 15,300 -1,740 Descending Miami Center
12:38AM 25.5614 -80.8825 28° Northeast 387 445 14,000 -1,500 Descending Miami Center
12:38AM 25.5744 -80.8644 51° Northeast 377 434 13,800 -2,220 Descending Miami Center
12:39AM 25.6183 -80.7808 60° Northeast 380 437 11,800 -2,400 Descending Miami Center
12:39AM 25.6311 -80.7697 38° Northeast 351 404 11,400 -1,800 Descending Miami Center
12:40AM 25.6833 -80.6953 52° Northeast 362 417 10,000 -1,440 Descending Miami Center
12:40AM 25.6903 -80.6681 74° East 363 418 10,000 -240 Level Miami Center
12:41AM 25.6986 -80.5875 83° East 360 414 9,800 -240 Descending Miami Center
12:41AM 25.6992 -80.5667 88° East 356 410 9,800 -660 Level Miami Center
12:42AM 25.7078 -80.4678 84° East 329 379 9,100 -900 Descending Miami Center
12:42AM 25.7103 -80.4564 76° East 344 396 8,900 -1,140 Descending Miami Center
12:43AM 25.7186 -80.3667 84° East 326 375 8,000 -1,140 Descending Miami Center
12:43AM 25.7231 -80.3553 67° East 333 383 7,800 -1,200 Descending Miami Center
12:44AM 25.7267 -80.3000 86° East 309 356 7,200 -1,440 Descending Miami Center
12:44AM 25.7358 -80.2611 75° East 321 369 6,400 -1,800 Descending Miami Center
12:45AM 25.7411 -80.2083 84° East 308 354 5,400 -1,440 Descending Miami Center
12:46AM 25.7539 -80.1142 81° East 285 328 4,100 -960 Descending Miami Center
12:47AM 25.8081 -80.1086 North 185 213 3,400 -900 Descending Miami Center
12:48AM 25.8028 -80.1661 264° West 187 215 2,200 -1,140 Descending Miami Center
12:49AM 25.8039 -80.2100 272° West 124 143 1,200 -900 Descending Miami Center
12:50AM 25.8008 -80.2514 265° West 131 151 400 -840 Descending Miami Center
12:52AM 25.7833 -80.2833 262° West  Level FlightAware Approximate